createdAt,value
2023-05-08T04:19:15.390Z,100732.88
2023-05-08T04:23:21.569Z,100732.88
2023-05-08T04:27:25.491Z,100750.06
2023-05-08T04:31:30.264Z,100752.72
2023-05-08T04:35:34.476Z,100762.66
2023-05-08T04:39:37.856Z,100769.91
2023-05-08T04:43:41.159Z,100775.31
2023-05-08T04:47:44.492Z,100784.81
2023-05-08T04:51:47.240Z,100779.19
2023-05-08T04:55:50.471Z,100786.88
2023-05-08T04:59:53.458Z,100806.19
2023-05-08T05:03:56.988Z,100805.81
2023-05-08T05:07:59.842Z,100802.75
2023-05-08T05:12:07.337Z,100799.81
2023-05-08T05:16:11.065Z,100808.59
2023-05-08T05:20:15.239Z,100811.22
2023-05-08T05:24:17.999Z,100819.13
2023-05-08T05:28:22.184Z,100815.59
2023-05-08T05:32:25.540Z,100812.25
2023-05-08T05:36:29.535Z,100822.59
2023-05-08T05:40:32.577Z,100821.94
2023-05-08T05:44:35.682Z,100822.28
2023-05-08T05:48:38.889Z,100823.75
2023-05-08T05:52:43.206Z,100831.03
2023-05-08T05:56:48.446Z,100834.31
2023-05-08T06:00:52.632Z,100831.78
2023-05-08T06:04:55.823Z,100840.41
2023-05-08T06:09:01.692Z,100836.06
2023-05-08T06:13:05.291Z,100834.94
2023-05-08T06:17:10.182Z,100829.69
2023-05-08T06:21:41.744Z,100828.44
2023-05-08T06:25:45.280Z,100832.66
2023-05-08T06:29:53.323Z,100832.16
2023-05-08T06:33:56.024Z,100839.56
2023-05-08T06:38:00.248Z,100836.75
2023-05-08T06:42:05.288Z,100838.66
2023-05-08T06:46:14.053Z,100841.53
2023-05-08T06:50:16.779Z,100838.13
2023-05-08T06:54:19.817Z,100854.19
2023-05-08T06:58:22.578Z,100844.88
2023-05-08T07:02:26.684Z,100845.50
2023-05-08T07:06:34.036Z,100843.13
2023-05-08T07:10:37.732Z,100841.66
2023-05-08T07:14:40.771Z,100849.56
2023-05-08T07:18:47.747Z,100851.03
2023-05-08T07:22:52.434Z,100850.06
2023-05-08T07:26:56.740Z,100851.50
2023-05-08T07:31:09.970Z,100845.41
2023-05-08T07:35:23.061Z,100847.28
2023-05-08T07:39:31.161Z,100848.25
2023-05-08T07:43:44.004Z,100852.38
2023-05-08T07:47:57.542Z,100855.34
2023-05-08T07:52:00.682Z,100846.09
2023-05-08T07:56:03.990Z,100854.31
2023-05-08T08:00:11.784Z,100850.19
2023-05-08T08:04:16.485Z,100840.03
2023-05-08T08:08:19.639Z,100844.53
2023-05-08T08:17:05.628Z,100839.56
2023-05-08T08:21:20.647Z,100836.81
2023-05-08T08:25:28.160Z,100842.28
2023-05-08T08:29:34.296Z,100836.87
2023-05-08T08:33:40.765Z,100838.38
2023-05-08T08:37:50.674Z,100845.50
2023-05-08T08:42:04.510Z,100837.91
2023-05-08T08:46:16.145Z,100844.34
2023-05-08T08:50:29.923Z,100835.97
2023-05-08T08:54:43.243Z,100836.84
2023-05-08T08:58:55.286Z,100822.69
2023-05-08T09:03:03.475Z,100826.94
2023-05-08T09:07:17.529Z,100833.22
2023-05-08T09:11:21.422Z,100830.81
2023-05-08T09:15:32.161Z,100834.56
2023-05-08T09:19:35.301Z,100826.94
2023-05-08T09:24:10.594Z,100819.31
2023-05-08T09:28:27.310Z,100820.91
2023-05-08T09:32:34.406Z,100833.53
2023-05-08T09:36:37.632Z,100827.00
2023-05-08T09:40:40.773Z,100826.34
2023-05-08T09:44:55.826Z,100828.81
2023-05-08T09:49:01.143Z,100828.19
2023-05-08T09:53:04.144Z,100829.84
2023-05-08T09:57:13.820Z,100820.16
2023-05-08T10:01:36.748Z,100813.63
2023-05-08T10:05:40.639Z,100813.16
2023-05-08T10:10:00.051Z,100799.94
2023-05-08T10:14:03.103Z,100813.41
2023-05-08T10:18:09.076Z,100799.37
2023-05-08T10:22:14.106Z,100803.28
2023-05-08T10:26:24.977Z,100805.12
2023-05-08T10:30:31.112Z,100792.38
2023-05-08T10:39:34.658Z,100797.13
2023-05-08T10:43:42.882Z,100789.28
2023-05-08T10:48:00.240Z,100783.09
2023-05-08T10:52:32.282Z,100784.44
2023-05-08T10:56:41.652Z,100785.81
2023-05-08T11:01:00.024Z,100778.59
2023-05-08T11:05:24.469Z,100776.16
2023-05-08T11:14:15.159Z,100772.84
2023-05-08T11:18:41.773Z,100758.69
2023-05-08T11:22:49.775Z,100767.69
2023-05-08T11:26:52.523Z,100768.38
2023-05-08T11:30:58.975Z,100768.78
2023-05-08T11:35:20.325Z,100771.56
2023-05-08T11:39:32.853Z,100758.97
2023-05-08T11:43:50.745Z,100760.28
2023-05-08T11:48:00.782Z,100756.06
2023-05-08T11:52:06.140Z,100758.75
2023-05-08T11:56:14.478Z,100757.12
2023-05-08T12:00:22.368Z,100750.75
2023-05-08T12:04:25.509Z,100757.69
2023-05-08T12:08:28.614Z,100752.47
2023-05-08T12:12:40.015Z,100753.47
2023-05-08T12:16:42.894Z,100762.97
2023-05-08T12:20:46.184Z,100757.12
2023-05-08T12:24:49.560Z,100760.28
2023-05-08T12:28:57.080Z,100756.19
2023-05-08T12:33:01.078Z,100759.47
2023-05-08T12:37:04.998Z,100752.59
2023-05-08T12:41:08.852Z,100743.03
2023-05-08T12:45:23.328Z,100752.91
2023-05-08T12:49:30.786Z,100744.88
2023-05-08T12:53:34.115Z,100741.84
2023-05-08T12:57:37.415Z,100744.69
2023-05-08T13:01:41.007Z,100750.22
2023-05-08T13:05:45.992Z,100750.59
2023-05-08T13:10:00.302Z,100757.00
2023-05-08T13:14:03.165Z,100755.03
2023-05-08T13:18:07.712Z,100744.78
2023-05-08T13:22:10.415Z,100730.00
2023-05-08T13:26:13.490Z,100741.63
2023-05-08T13:30:16.658Z,100747.72
2023-05-08T13:34:19.615Z,100747.62
2023-05-08T13:38:22.790Z,100744.72
2023-05-08T13:42:26.431Z,100745.34
2023-05-08T13:46:29.590Z,100740.69
2023-05-08T13:50:32.824Z,100734.19
2023-05-08T13:54:35.609Z,100734.56
2023-05-08T13:58:38.716Z,100735.50
2023-05-08T14:02:41.398Z,100742.06
2023-05-08T14:06:44.526Z,100741.91
2023-05-08T14:10:47.195Z,100743.22
2023-05-08T14:14:50.277Z,100740.72
2023-05-08T14:18:52.952Z,100735.06
2023-05-08T14:22:59.611Z,100728.03
2023-05-08T14:27:06.098Z,100742.78
2023-05-08T14:31:09.279Z,100749.88
2023-05-08T14:35:14.560Z,100753.47
2023-05-08T14:39:17.610Z,100754.91
2023-05-08T14:43:21.310Z,100762.81
2023-05-08T14:47:24.407Z,100752.06
2023-05-08T14:51:27.180Z,100753.13
2023-05-08T14:55:30.296Z,100752.59
